This is the latest recevied weather packets stored in our database for station/object OK3MS-5. If no packets are shown the sender has not sent any weather packets the latest 10 day(s).
| Time | Temp. | Humidity | Pressure | Rain* | Wind** | Luminosity | Snow |
|---|---|---|---|---|---|---|---|
| 1777614904 | 7.22° C | 64% | 1029.4 hPa | 0 mm | - | 48 W/m² | - |
| 1777614610 | 7.22° C | 63% | 1029.5 hPa | 0 mm | - | 48 W/m² | - |
| 1777614303 | 6.67° C | 65% | 1029.5 hPa | 0 mm | - | 49 W/m² | - |
| 1777614008 | 6.11° C | 65% | 1029.7 hPa | 0 mm | - | 54 W/m² | - |
| 1777613703 | 5° C | 70% | 1029.8 hPa | 0 mm | - | 62 W/m² | - |
| 1777613403 | 4.44° C | 73% | 1030.1 hPa | 0 mm | - | 73 W/m² | - |
| 1777612807 | 5.56° C | 69% | 1029.8 hPa | 0 mm | - | 68 W/m² | - |
| 1777612505 | 5° C | 73% | 1029.9 hPa | 0 mm | - | 42 W/m² | - |
| 1777612204 | 5° C | 72% | 1029.9 hPa | 0 mm | - | 39 W/m² | - |
| 1777611903 | 3.89° C | 73% | 1030.1 hPa | 0 mm | - | 37 W/m² | - |
| 1777611608 | 3.33° C | 78% | 1030.3 hPa | 0 mm | - | 36 W/m² | - |
| 1777611305 | 3.33° C | 79% | 1030.4 hPa | 0 mm | - | 35 W/m² | - |
| 1777611008 | 2.78° C | 80% | 1030.4 hPa | 0 mm | - | 34 W/m² | - |
| 1777610703 | 2.22° C | 80% | 1030.3 hPa | 0 mm | - | 35 W/m² | - |
| 1777610406 | 1.67° C | 82% | 1030.5 hPa | 0 mm | - | 43 W/m² | - |
| 1777610103 | 0.56° C | 86% | 1030.5 hPa | 0 mm | - | 43 W/m² | - |
| 1777609803 | 0.56° C | 87% | 1030.7 hPa | 0 mm | - | 40 W/m² | - |
| 1777609502 | 0° C | 89% | 1030.8 hPa | 0 mm | - | 33 W/m² | - |
| 1777609210 | -0.56° C | 91% | 1030.8 hPa | 0 mm | - | 26 W/m² | - |
| 1777608904 | -0.56° C | 91% | 1031 hPa | 0 mm | - | 20 W/m² | - |
| 1777608603 | -0.56° C | 89% | 1030.9 hPa | 0 mm | - | 16 W/m² | - |
| 1777608311 | -1.11° C | 91% | 1030.8 hPa | 0 mm | - | 14 W/m² | - |
| 1777608007 | -1.11° C | 91% | 1030.9 hPa | 0 mm | - | 10 W/m² | - |
| 1777607709 | -1.11° C | 91% | 1030.9 hPa | 0 mm | - | 6 W/m² | - |
| 1777607404 | -1.67° C | 93% | 1030.9 hPa | 0 mm | - | 5 W/m² | - |
* Rain latest hour (hover to see other rain measurements)
** Current wind speed in m/s (hover to see current wind gust speed)